Time;durP1;ratioP1;P1;durP2;ratioP2;P2;SDS_P1;SDS_P2;PMS_P1;PMS_P2;Temp;Humidity;BMP_temperature;BMP_pressure;BME280_temperature;BME280_humidity;BME280_pressure;Samples;Min_cycle;Max_cycle;Signal;HPM_P1;HPM_P2
2022/02/02 00:08:38;;;;;;;13.77;2.17;;;;;;;;;;4987690;23;20040;-85
2022/02/02 00:14:09;;;;;;;24.67;2.72;;;;;;;;;;5468020;23;20100;-78
2022/02/02 00:19:25;;;;;;;16.40;2.70;;;;;;;;;;4961200;29;20051;-86
2022/02/02 00:27:03;;;;;;;24.48;2.72;;;;;;;;;;5086783;23;20760;-85
2022/02/02 00:29:35;;;;;;;20.55;2.03;;;;;;;;;;5311286;23;20091;-86
2022/02/02 00:32:29;;;;;;;21.35;2.38;;;;;;;;;;4958439;23;20072;-87
2022/02/02 00:50:47;;;;;;;27.55;2.97;;;;;;;;;;5636206;23;20307;-85
2022/02/02 00:53:31;;;;;;;18.13;2.17;;;;;;;;;;5755874;23;20035;-81
2022/02/02 01:33:04;;;;;;;15.40;2.78;;;;;;;;;;5355095;23;20063;-85
2022/02/02 01:43:31;;;;;;;23.45;2.80;;;;;;;;;;5599433;23;20076;-83
2022/02/02 01:46:06;;;;;;;20.25;2.17;;;;;;;;;;4941074;29;20016;-85
2022/02/02 01:51:45;;;;;;;14.45;2.33;;;;;;;;;;5421596;23;20036;-85
2022/02/02 01:54:19;;;;;;;20.55;2.58;;;;;;;;;;5109369;23;20035;-86
2022/02/02 01:56:45;;;;;;;23.73;3.28;;;;;;;;;;4926168;29;20056;-85
2022/02/02 02:01:46;;;;;;;18.40;2.10;;;;;;;;;;4941687;29;20012;-86
2022/02/02 02:04:17;;;;;;;19.63;2.25;;;;;;;;;;4926039;29;20008;-85
2022/02/02 02:06:43;;;;;;;17.08;2.40;;;;;;;;;;5070010;23;20055;-84
2022/02/02 02:09:08;;;;;;;18.13;2.47;;;;;;;;;;4956439;29;20046;-85
2022/02/02 02:11:36;;;;;;;21.67;2.63;;;;;;;;;;4941870;29;20031;-85
2022/02/02 02:16:35;;;;;;;12.93;2.17;;;;;;;;;;4941256;29;20035;-85
2022/02/02 02:19:05;;;;;;;20.48;2.65;;;;;;;;;;5116256;23;20047;-85
2022/02/02 02:21:33;;;;;;;22.27;2.50;;;;;;;;;;4944242;29;20003;-86
2022/02/02 02:24:01;;;;;;;17.10;2.58;;;;;;;;;;4934066;29;20035;-86
2022/02/02 02:26:28;;;;;;;17.75;2.88;;;;;;;;;;4988767;23;20051;-85
2022/02/02 02:40:02;;;;;;;17.80;2.60;;;;;;;;;;5077508;23;20143;-85
2022/02/02 02:56:08;;;;;;;19.20;3.95;;;;;;;;;;4958937;29;20075;-85
2022/02/02 02:58:50;;;;;;;12.82;2.53;;;;;;;;;;4953967;29;20028;-83
2022/02/02 03:01:45;;;;;;;16.70;2.22;;;;;;;;;;4959898;29;20004;-83
2022/02/02 03:35:03;;;;;;;19.70;3.55;;;;;;;;;;4945176;29;20008;-83
2022/02/02 03:59:06;;;;;;;10.85;1.20;;;;;;;;;;4941032;29;20020;-83
2022/02/02 04:06:59;;;;;;;10.90;1.30;;;;;;;;;;4941918;29;20024;-83
2022/02/02 04:12:35;;;;;;;10.25;1.15;;;;;;;;;;4943694;29;20052;-83
2022/02/02 04:18:15;;;;;;;9.93;1.50;;;;;;;;;;4925124;29;20035;-76
2022/02/02 04:37:41;;;;;;;13.55;1.88;;;;;;;;;;4904117;29;20498;-78
2022/02/02 05:02:12;;;;;;;13.52;3.10;;;;;;;;;;4902149;29;20035;-76
2022/02/02 05:06:54;;;;;;;7.78;1.50;;;;;;;;;;4902377;29;20548;-78
2022/02/02 05:15:37;;;;;;;10.20;1.48;;;;;;;;;;4900533;29;20071;-77
2022/02/02 05:17:36;;;;;;;12.60;1.83;;;;;;;;;;4901592;29;20144;-78
2022/02/02 05:49:56;;;;;;;15.93;2.03;;;;;;;;;;4898196;29;20426;-77
2022/02/02 05:52:21;;;;;;;19.67;2.45;;;;;;;;;;4898395;29;20303;-77
2022/02/02 05:54:46;;;;;;;14.18;2.08;;;;;;;;;;4899997;29;20430;-77
2022/02/02 05:57:13;;;;;;;16.08;2.38;;;;;;;;;;4896803;29;20052;-76
2022/02/02 05:59:39;;;;;;;15.35;2.55;;;;;;;;;;4898026;29;20029;-77
2022/02/02 06:02:05;;;;;;;18.38;2.42;;;;;;;;;;4897763;29;20029;-77
2022/02/02 06:04:30;;;;;;;12.13;2.47;;;;;;;;;;4896872;29;20470;-77
2022/02/02 06:06:57;;;;;;;16.95;2.15;;;;;;;;;;4897749;29;20052;-77
2022/02/02 06:09:33;;;;;;;10.90;2.65;;;;;;;;;;4895961;29;20025;-76
2022/02/02 06:11:59;;;;;;;13.60;1.88;;;;;;;;;;4884266;29;20069;-76
2022/02/02 06:14:25;;;;;;;15.88;2.05;;;;;;;;;;4878583;29;20500;-77
2022/02/02 06:16:52;;;;;;;10.90;1.50;;;;;;;;;;4878856;29;20133;-77
2022/02/02 06:19:17;;;;;;;7.35;1.20;;;;;;;;;;4878783;29;20543;-77
2022/02/02 06:21:48;;;;;;;12.25;2.00;;;;;;;;;;4878771;29;20107;-77
2022/02/02 06:24:17;;;;;;;7.50;1.20;;;;;;;;;;4878742;29;20467;-75
2022/02/02 06:26:48;;;;;;;7.40;1.40;;;;;;;;;;4878810;29;20027;-77
2022/02/02 06:29:14;;;;;;;9.23;1.20;;;;;;;;;;4878453;29;20029;-77
2022/02/02 06:31:40;;;;;;;8.13;1.40;;;;;;;;;;4892829;29;20083;-77
2022/02/02 06:34:06;;;;;;;7.22;0.95;;;;;;;;;;4896585;29;20059;-77
2022/02/02 06:36:33;;;;;;;13.65;1.77;;;;;;;;;;4897372;29;20033;-78
2022/02/02 06:38:58;;;;;;;12.05;1.00;;;;;;;;;;4896069;29;20061;-77
2022/02/02 06:41:25;;;;;;;7.90;1.10;;;;;;;;;;4897045;29;20017;-77
2022/02/02 06:43:51;;;;;;;15.98;1.65;;;;;;;;;;4896860;29;20029;-77
2022/02/02 06:46:18;;;;;;;13.68;2.33;;;;;;;;;;4897193;29;20504;-77
2022/02/02 06:48:43;;;;;;;16.15;2.35;;;;;;;;;;4896945;29;20021;-77
2022/02/02 06:51:16;;;;;;;11.15;1.83;;;;;;;;;;4897419;29;20031;-77
2022/02/02 06:53:48;;;;;;;9.77;1.85;;;;;;;;;;4897074;29;20024;-77
2022/02/02 06:56:45;;;;;;;19.77;1.90;;;;;;;;;;4896952;29;20090;-77
2022/02/02 07:02:10;;;;;;;11.75;1.75;;;;;;;;;;4897127;29;20025;-77
2022/02/02 07:04:53;;;;;;;11.02;1.95;;;;;;;;;;4896796;29;20016;-77
2022/02/02 07:10:26;;;;;;;17.00;1.73;;;;;;;;;;4897289;29;20426;-76
2022/02/02 07:13:14;;;;;;;13.15;2.28;;;;;;;;;;4878042;29;20322;-77
2022/02/02 07:16:21;;;;;;;15.82;2.05;;;;;;;;;;4878130;29;20045;-76
2022/02/02 07:18:56;;;;;;;17.33;2.10;;;;;;;;;;4878647;29;20072;-76
2022/02/02 07:24:37;;;;;;;13.55;2.10;;;;;;;;;;4882019;29;20064;-76
2022/02/02 07:27:28;;;;;;;16.45;3.03;;;;;;;;;;4881981;29;20025;-77
2022/02/02 07:30:29;;;;;;;16.33;2.17;;;;;;;;;;4881797;29;20545;-77
2022/02/02 07:32:50;;;;;;;19.73;3.72;;;;;;;;;;4882422;29;20067;-77
2022/02/02 07:35:45;;;;;;;14.57;3.35;;;;;;;;;;4881610;29;20021;-76
2022/02/02 07:38:13;;;;;;;14.93;2.28;;;;;;;;;;4881675;29;20077;-77
2022/02/02 07:40:45;;;;;;;15.27;2.55;;;;;;;;;;4881973;29;20017;-77
2022/02/02 07:43:18;;;;;;;14.82;2.28;;;;;;;;;;4882441;29;20068;-76
2022/02/02 07:45:44;;;;;;;17.80;2.58;;;;;;;;;;4881620;29;20021;-76
2022/02/02 07:48:11;;;;;;;16.50;2.15;;;;;;;;;;4881601;29;20053;-76
2022/02/02 07:50:36;;;;;;;15.07;2.20;;;;;;;;;;4881539;29;20029;-77
2022/02/02 07:53:09;;;;;;;9.75;2.85;;;;;;;;;;4881685;29;20509;-76
2022/02/02 07:55:36;;;;;;;16.95;2.65;;;;;;;;;;4881212;29;20025;-76
2022/02/02 07:58:02;;;;;;;10.02;2.33;;;;;;;;;;4881414;29;20029;-76
2022/02/02 08:00:30;;;;;;;17.63;2.88;;;;;;;;;;4864811;29;20036;-76
2022/02/02 08:03:13;;;;;;;13.40;2.35;;;;;;;;;;4881487;29;20033;-76
2022/02/02 08:05:43;;;;;;;12.75;2.28;;;;;;;;;;4881528;29;20025;-76
2022/02/02 08:08:16;;;;;;;18.83;2.88;;;;;;;;;;4881260;29;20055;-76
2022/02/02 08:10:42;;;;;;;16.65;2.30;;;;;;;;;;4881044;29;20479;-77
2022/02/02 08:13:12;;;;;;;16.02;2.17;;;;;;;;;;4880676;29;20551;-77
2022/02/02 08:15:38;;;;;;;14.80;2.50;;;;;;;;;;4880755;29;20032;-77
2022/02/02 08:18:03;;;;;;;17.33;2.38;;;;;;;;;;4881045;29;20021;-76
2022/02/02 08:20:28;;;;;;;13.15;2.92;;;;;;;;;;4881130;29;20084;-76
2022/02/02 08:22:54;;;;;;;11.70;2.13;;;;;;;;;;4881131;29;20157;-77
2022/02/02 08:25:26;;;;;;;18.00;2.47;;;;;;;;;;4881036;29;20043;-77
2022/02/02 08:27:53;;;;;;;18.20;2.63;;;;;;;;;;4880998;29;20112;-76
2022/02/02 08:30:19;;;;;;;18.73;2.35;;;;;;;;;;4879565;29;20036;-76
2022/02/02 08:32:57;;;;;;;15.43;2.20;;;;;;;;;;4879709;29;20570;-77
2022/02/02 08:35:23;;;;;;;18.52;2.30;;;;;;;;;;4879440;29;20430;-76
2022/02/02 08:37:55;;;;;;;16.30;2.92;;;;;;;;;;4880558;29;20029;-76
2022/02/02 08:40:26;;;;;;;7.90;1.65;;;;;;;;;;4880586;29;20033;-76
2022/02/02 08:42:52;;;;;;;17.73;2.80;;;;;;;;;;4879038;29;20033;-75
2022/02/02 08:45:25;;;;;;;13.43;2.70;;;;;;;;;;4880240;29;20024;-76
2022/02/02 08:47:56;;;;;;;18.17;2.83;;;;;;;;;;4879121;29;20394;-76
2022/02/02 08:50:29;;;;;;;17.98;2.53;;;;;;;;;;4881000;29;20031;-76
2022/02/02 08:52:59;;;;;;;17.65;2.85;;;;;;;;;;4880126;29;20283;-76
2022/02/02 08:55:49;;;;;;;22.35;2.95;;;;;;;;;;4880271;29;20029;-75
2022/02/02 09:01:06;;;;;;;11.98;1.90;;;;;;;;;;4879310;29;20539;-75
2022/02/02 09:06:15;;;;;;;14.13;2.17;;;;;;;;;;4880367;29;20089;-76
2022/02/02 09:08:42;;;;;;;25.23;3.33;;;;;;;;;;4878885;29;20029;-75
2022/02/02 09:23:25;;;;;;;10.95;1.73;;;;;;;;;;4878388;29;20392;-76
2022/02/02 09:25:18;;;;;;;11.15;2.33;;;;;;;;;;4878995;29;20033;-77
2022/02/02 09:31:27;;;;;;;13.10;2.20;;;;;;;;;;4881280;29;20032;-77
2022/02/02 09:36:16;;;;;;;10.77;1.95;;;;;;;;;;4879928;29;20035;-76
2022/02/02 09:38:41;;;;;;;13.88;2.55;;;;;;;;;;4879577;29;20065;-76
2022/02/02 09:43:33;;;;;;;10.85;1.65;;;;;;;;;;4879211;29;20067;-76
2022/02/02 09:46:01;;;;;;;11.70;1.83;;;;;;;;;;4879498;29;20028;-76
2022/02/02 09:48:35;;;;;;;10.40;1.67;;;;;;;;;;4879681;29;20021;-76
2022/02/02 09:51:08;;;;;;;14.60;2.58;;;;;;;;;;4879335;29;20051;-76
2022/02/02 10:04:31;;;;;;;17.90;2.42;;;;;;;;;;4879267;29;20113;-77
2022/02/02 10:15:29;;;;;;;10.50;1.67;;;;;;;;;;4942378;23;20048;-81
2022/02/02 10:18:04;;;;;;;10.77;2.13;;;;;;;;;;4926768;29;20035;-82
2022/02/02 10:20:29;;;;;;;11.30;2.00;;;;;;;;;;4925352;29;20142;-80
2022/02/02 10:22:58;;;;;;;17.42;2.17;;;;;;;;;;4941494;29;20064;-80
2022/02/02 10:25:29;;;;;;;14.38;2.33;;;;;;;;;;4935989;29;20028;-81
2022/02/02 10:28:13;;;;;;;12.07;1.95;;;;;;;;;;4924899;29;20031;-81
2022/02/02 10:30:46;;;;;;;10.40;1.50;;;;;;;;;;4909864;29;20058;-81
2022/02/02 10:33:16;;;;;;;12.75;1.38;;;;;;;;;;4927204;29;20031;-82
2022/02/02 10:35:43;;;;;;;6.90;1.00;;;;;;;;;;4910426;29;20031;-83
2022/02/02 10:38:19;;;;;;;7.88;1.23;;;;;;;;;;4925593;29;20028;-81
2022/02/02 10:43:22;;;;;;;6.43;1.30;;;;;;;;;;4932294;29;20019;-82
2022/02/02 10:45:48;;;;;;;7.82;1.52;;;;;;;;;;4916623;29;20099;-82
2022/02/02 10:48:29;;;;;;;11.20;1.65;;;;;;;;;;4932992;29;20093;-82
2022/02/02 10:51:03;;;;;;;6.85;1.20;;;;;;;;;;4931547;29;20021;-82
2022/02/02 10:56:32;;;;;;;12.80;1.52;;;;;;;;;;4928109;29;20095;-81
2022/02/02 11:01:44;;;;;;;11.50;1.90;;;;;;;;;;4928604;29;20032;-82
2022/02/02 11:06:53;;;;;;;10.55;1.70;;;;;;;;;;4928357;29;20084;-82
2022/02/02 11:09:22;;;;;;;4.35;1.25;;;;;;;;;;4914253;29;20020;-82
2022/02/02 11:11:48;;;;;;;8.77;1.75;;;;;;;;;;4928831;29;20035;-83
2022/02/02 11:14:32;;;;;;;10.55;1.42;;;;;;;;;;4928838;29;20498;-82
2022/02/02 11:17:01;;;;;;;10.82;2.00;;;;;;;;;;4929697;29;20623;-81
2022/02/02 11:19:30;;;;;;;11.95;1.73;;;;;;;;;;4930261;29;20043;-83
2022/02/02 11:22:15;;;;;;;10.02;1.55;;;;;;;;;;4933760;29;20020;-83
2022/02/02 11:24:40;;;;;;;7.00;1.40;;;;;;;;;;4930897;29;20024;-83
2022/02/02 11:27:06;;;;;;;14.73;2.30;;;;;;;;;;4915850;29;20020;-83
2022/02/02 11:29:38;;;;;;;9.55;1.40;;;;;;;;;;4930900;29;20052;-82
2022/02/02 11:32:05;;;;;;;12.82;2.30;;;;;;;;;;4930568;29;20044;-83
2022/02/02 11:34:30;;;;;;;8.18;1.55;;;;;;;;;;4931330;29;20055;-82
2022/02/02 11:37:00;;;;;;;8.80;1.60;;;;;;;;;;4913973;29;20486;-82
2022/02/02 11:39:33;;;;;;;12.75;2.00;;;;;;;;;;4929914;29;20059;-82
2022/02/02 11:42:10;;;;;;;8.48;1.40;;;;;;;;;;4929826;29;20027;-82
2022/02/02 11:44:49;;;;;;;8.93;1.88;;;;;;;;;;4931742;29;20028;-81
2022/02/02 11:50:00;;;;;;;10.48;1.63;;;;;;;;;;4927987;29;20024;-82
2022/02/02 11:52:44;;;;;;;12.77;1.73;;;;;;;;;;4928260;29;20036;-82
2022/02/02 11:55:10;;;;;;;9.27;1.80;;;;;;;;;;4929002;29;20024;-81
2022/02/02 11:57:54;;;;;;;8.98;2.08;;;;;;;;;;4926624;29;20117;-82
2022/02/02 12:08:14;;;;;;;12.05;1.75;;;;;;;;;;4934346;29;20020;-82
2022/02/02 12:11:00;;;;;;;10.07;1.90;;;;;;;;;;4936252;29;20020;-81
2022/02/02 12:19:46;;;;;;;7.85;1.10;;;;;;;;;;4936036;29;20043;-83
2022/02/02 12:57:39;;;;;;;9.48;1.38;;;;;;;;;;4930710;29;20051;-82
2022/02/02 13:00:11;;;;;;;12.32;1.70;;;;;;;;;;4926686;29;20020;-82
2022/02/02 13:02:38;;;;;;;8.75;1.70;;;;;;;;;;4910937;29;20028;-83
2022/02/02 13:05:04;;;;;;;7.15;1.30;;;;;;;;;;4931560;29;20020;-83
2022/02/02 13:07:30;;;;;;;9.18;1.95;;;;;;;;;;4929948;29;20099;-83
2022/02/02 13:09:57;;;;;;;7.40;1.38;;;;;;;;;;4911450;29;20047;-82
2022/02/02 13:12:45;;;;;;;10.52;1.80;;;;;;;;;;4910413;29;20111;-82
2022/02/02 13:18:12;;;;;;;9.63;1.45;;;;;;;;;;4928851;29;20043;-82
2022/02/02 13:27:16;;;;;;;9.23;1.40;;;;;;;;;;4927960;29;20105;-82
2022/02/02 13:29:41;;;;;;;6.53;1.25;;;;;;;;;;4927896;29;20027;-85
2022/02/02 13:37:27;;;;;;;5.47;0.90;;;;;;;;;;4923231;29;19914;-82
2022/02/02 14:03:53;;;;;;;12.98;1.95;;;;;;;;;;4921537;29;20035;-87
2022/02/02 14:06:35;;;;;;;9.27;1.38;;;;;;;;;;4916471;29;20342;-85
2022/02/02 14:09:54;;;;;;;9.25;1.63;;;;;;;;;;4898866;29;20024;-85
2022/02/02 14:33:33;;;;;;;9.73;1.40;;;;;;;;;;4932869;29;20058;-82
2022/02/02 14:36:02;;;;;;;7.40;1.02;;;;;;;;;;4932742;29;20016;-82
2022/02/02 14:38:34;;;;;;;8.52;1.65;;;;;;;;;;4918326;29;20024;-83
2022/02/02 14:41:27;;;;;;;7.05;1.40;;;;;;;;;;4935567;29;20039;-83
2022/02/02 14:46:29;;;;;;;7.90;1.88;;;;;;;;;;4936292;29;20035;-83
2022/02/02 14:49:02;;;;;;;10.77;1.35;;;;;;;;;;4935834;29;20024;-82
2022/02/02 15:31:50;;;;;;;5.30;0.98;;;;;;;;;;4921049;29;20035;-80
2022/02/02 15:34:23;;;;;;;7.10;1.13;;;;;;;;;;4921526;29;20028;-81
2022/02/02 15:39:21;;;;;;;5.32;1.08;;;;;;;;;;4931027;29;20032;-80
2022/02/02 15:55:52;;;;;;;8.02;1.17;;;;;;;;;;4920323;29;20134;-79
2022/02/02 16:03:25;;;;;;;8.35;1.55;;;;;;;;;;4931438;29;20031;-81
2022/02/02 16:05:54;;;;;;;5.97;1.13;;;;;;;;;;4932129;29;20024;-82
2022/02/02 16:08:23;;;;;;;9.02;1.20;;;;;;;;;;4928986;29;20047;-81
2022/02/02 16:13:40;;;;;;;8.35;0.90;;;;;;;;;;4926732;29;20028;-82
2022/02/02 16:16:26;;;;;;;4.80;1.70;;;;;;;;;;4947001;23;20504;-75
2022/02/02 16:19:03;;;;;;;7.60;1.70;;;;;;;;;;4939045;29;20103;-76
2022/02/02 16:37:46;;;;;;;3.95;1.20;;;;;;;;;;4918464;29;20470;-76
2022/02/02 16:40:15;;;;;;;8.55;1.67;;;;;;;;;;4918262;29;20102;-75
2022/02/02 16:45:22;;;;;;;5.50;0.93;;;;;;;;;;4918005;29;20043;-75
2022/02/02 16:47:48;;;;;;;8.30;2.08;;;;;;;;;;4918135;29;20042;-75
2022/02/02 16:50:17;;;;;;;6.50;0.82;;;;;;;;;;4918264;29;20553;-75
2022/02/02 16:52:45;;;;;;;10.30;1.27;;;;;;;;;;4918122;29;20020;-76
2022/02/02 16:55:17;;;;;;;8.10;1.35;;;;;;;;;;4900512;29;20020;-75
2022/02/02 16:57:54;;;;;;;11.00;1.42;;;;;;;;;;4917901;29;20024;-75
2022/02/02 17:34:58;;;;;;;5.93;1.07;;;;;;;;;;4917319;29;20052;-76
2022/02/02 17:37:48;;;;;;;7.28;1.48;;;;;;;;;;4917208;29;20107;-76
2022/02/02 18:02:40;;;;;;;10.32;1.17;;;;;;;;;;4916974;29;20075;-76
2022/02/02 18:20:31;;;;;;;12.77;1.70;;;;;;;;;;4916547;29;20032;-76
2022/02/02 18:23:17;;;;;;;10.10;1.38;;;;;;;;;;4916277;29;20478;-75
2022/02/02 18:28:52;;;;;;;9.43;1.35;;;;;;;;;;4916401;29;20040;-75
2022/02/02 18:42:44;;;;;;;14.23;2.47;;;;;;;;;;4916407;29;20020;-76
2022/02/02 18:44:52;;;;;;;12.53;2.63;;;;;;;;;;4916482;29;20060;-76
2022/02/02 18:55:14;;;;;;;9.68;2.42;;;;;;;;;;4916143;29;20027;-76
2022/02/02 19:03:01;;;;;;;9.95;1.70;;;;;;;;;;4915685;29;20036;-76
2022/02/02 19:06:03;;;;;;;7.70;1.58;;;;;;;;;;4898817;29;20020;-76
2022/02/02 19:56:55;;;;;;;9.73;1.55;;;;;;;;;;4919209;29;20032;-76
2022/02/02 20:10:05;;;;;;;10.32;2.38;;;;;;;;;;4900143;29;20108;-76
2022/02/02 20:12:39;;;;;;;13.65;2.13;;;;;;;;;;4899720;29;20029;-76
2022/02/02 20:15:06;;;;;;;9.77;1.55;;;;;;;;;;4900059;29;20025;-76
2022/02/02 20:17:33;;;;;;;16.50;1.80;;;;;;;;;;4899743;29;20028;-76
2022/02/02 20:20:09;;;;;;;9.55;1.75;;;;;;;;;;4899692;29;20020;-76
2022/02/02 20:22:35;;;;;;;13.30;2.10;;;;;;;;;;4899715;29;20100;-77
2022/02/02 20:25:02;;;;;;;19.00;1.70;;;;;;;;;;4898200;29;20482;-77
2022/02/02 20:27:29;;;;;;;10.18;1.88;;;;;;;;;;4898026;29;20401;-76
2022/02/02 20:29:54;;;;;;;10.60;1.60;;;;;;;;;;4898507;29;20027;-76
2022/02/02 20:32:20;;;;;;;7.72;2.05;;;;;;;;;;4899191;29;20024;-77
2022/02/02 20:34:45;;;;;;;14.10;2.78;;;;;;;;;;4899567;29;20473;-76
2022/02/02 20:37:14;;;;;;;13.60;1.85;;;;;;;;;;4899384;29;20427;-76
2022/02/02 20:40:04;;;;;;;12.00;1.80;;;;;;;;;;4899347;29;20032;-76
2022/02/02 20:42:41;;;;;;;9.63;1.80;;;;;;;;;;4898896;29;20123;-75
2022/02/02 21:11:48;;;;;;;17.85;2.25;;;;;;;;;;4898484;29;20055;-76
2022/02/02 21:14:10;;;;;;;13.00;1.88;;;;;;;;;;4898308;29;20084;-76
2022/02/02 21:16:39;;;;;;;11.40;2.20;;;;;;;;;;4898501;29;20111;-76
2022/02/02 21:19:08;;;;;;;12.65;2.30;;;;;;;;;;4897460;29;20025;-76
2022/02/02 21:21:46;;;;;;;10.45;1.83;;;;;;;;;;4899121;29;20033;-76
2022/02/02 21:27:04;;;;;;;11.23;2.13;;;;;;;;;;4898830;29;20047;-76
2022/02/02 21:29:30;;;;;;;15.90;1.75;;;;;;;;;;4899069;29;20032;-77
2022/02/02 21:31:55;;;;;;;15.77;2.20;;;;;;;;;;4899060;29;20023;-77
2022/02/02 21:34:22;;;;;;;9.88;1.83;;;;;;;;;;4899205;29;20021;-76
2022/02/02 21:36:47;;;;;;;16.17;2.42;;;;;;;;;;4897401;29;20458;-76
2022/02/02 21:39:24;;;;;;;14.27;1.83;;;;;;;;;;4882214;29;20116;-77
2022/02/02 21:41:51;;;;;;;11.70;1.75;;;;;;;;;;4908117;29;20059;-76
2022/02/02 21:44:17;;;;;;;11.85;1.85;;;;;;;;;;4918307;29;20032;-76
2022/02/02 21:46:42;;;;;;;14.80;2.40;;;;;;;;;;4907076;29;20035;-77
2022/02/02 21:49:14;;;;;;;8.88;1.73;;;;;;;;;;4925414;29;20134;-78
2022/02/02 21:51:50;;;;;;;10.93;2.08;;;;;;;;;;4919848;29;20036;-76
2022/02/02 21:54:16;;;;;;;18.77;2.15;;;;;;;;;;4917011;29;20102;-77
2022/02/02 21:56:41;;;;;;;13.13;2.05;;;;;;;;;;4924271;29;20485;-76
2022/02/02 21:59:06;;;;;;;12.63;2.05;;;;;;;;;;4925242;29;20485;-77
2022/02/02 22:01:31;;;;;;;9.10;2.05;;;;;;;;;;4923390;29;20032;-76
2022/02/02 22:03:56;;;;;;;9.52;1.40;;;;;;;;;;4906944;29;20062;-77
2022/02/02 22:06:22;;;;;;;14.98;3.55;;;;;;;;;;4916906;29;20453;-76
2022/02/02 22:08:47;;;;;;;8.55;2.13;;;;;;;;;;4923897;29;20482;-76
2022/02/02 22:11:12;;;;;;;12.80;2.08;;;;;;;;;;4918274;29;20039;-76
2022/02/02 22:13:44;;;;;;;16.95;2.05;;;;;;;;;;4921379;29;20031;-77
2022/02/02 22:16:14;;;;;;;10.88;1.80;;;;;;;;;;4907237;29;20035;-76
2022/02/02 22:18:40;;;;;;;11.65;2.75;;;;;;;;;;4909193;29;20126;-76
2022/02/02 22:21:06;;;;;;;11.88;1.85;;;;;;;;;;4916776;29;20110;-76
2022/02/02 22:23:34;;;;;;;15.82;2.03;;;;;;;;;;4920629;29;20127;-76
2022/02/02 22:25:59;;;;;;;8.63;1.50;;;;;;;;;;4918804;29;20031;-76
2022/02/02 22:28:24;;;;;;;9.82;1.73;;;;;;;;;;4923403;29;20024;-76
2022/02/02 22:30:50;;;;;;;20.08;2.45;;;;;;;;;;4923434;29;20531;-76
2022/02/02 22:33:15;;;;;;;13.48;2.33;;;;;;;;;;4923485;29;20044;-76
2022/02/02 22:35:40;;;;;;;10.98;2.28;;;;;;;;;;4916707;29;20103;-77
2022/02/02 22:38:07;;;;;;;16.25;2.33;;;;;;;;;;4928890;29;20477;-77
2022/02/02 22:40:33;;;;;;;14.43;2.53;;;;;;;;;;4923838;29;20032;-76
2022/02/02 22:42:58;;;;;;;9.20;1.60;;;;;;;;;;4923580;29;20054;-76
2022/02/02 22:45:23;;;;;;;13.25;2.20;;;;;;;;;;4923252;29;20032;-76
2022/02/02 22:47:49;;;;;;;13.32;1.92;;;;;;;;;;4923645;29;20027;-76
2022/02/02 22:50:15;;;;;;;12.57;1.92;;;;;;;;;;4923952;29;20028;-76
2022/02/02 22:52:46;;;;;;;13.45;1.88;;;;;;;;;;4905637;29;20128;-76
2022/02/02 22:55:13;;;;;;;11.77;2.75;;;;;;;;;;4925147;29;20063;-76
2022/02/02 22:57:38;;;;;;;12.80;1.83;;;;;;;;;;4927377;29;20126;-76
2022/02/02 23:00:10;;;;;;;18.23;2.33;;;;;;;;;;4926154;29;20147;-76
2022/02/02 23:05:06;;;;;;;16.27;2.40;;;;;;;;;;4924498;29;20493;-76
2022/02/02 23:07:31;;;;;;;19.92;3.55;;;;;;;;;;4926621;29;20059;-76
2022/02/02 23:09:58;;;;;;;13.40;2.83;;;;;;;;;;4926216;29;20027;-76
2022/02/02 23:12:25;;;;;;;12.23;2.35;;;;;;;;;;4902572;29;20114;-76
2022/02/02 23:14:50;;;;;;;8.65;1.75;;;;;;;;;;4926413;29;20090;-76
2022/02/02 23:17:17;;;;;;;17.17;3.47;;;;;;;;;;4918821;29;20485;-76
2022/02/02 23:19:46;;;;;;;16.23;2.53;;;;;;;;;;4903293;29;20036;-76
2022/02/02 23:22:12;;;;;;;;;;;;;;;;;;4901312;29;20477;-76
2022/02/02 23:24:38;;;;;;;16.95;2.05;;;;;;;;;;4926244;29;20440;-77
2022/02/02 23:27:05;;;;;;;14.35;2.30;;;;;;;;;;4901514;29;20115;-75
2022/02/02 23:29:35;;;;;;;10.18;2.20;;;;;;;;;;4905260;29;20024;-76
2022/02/02 23:32:00;;;;;;;10.82;2.13;;;;;;;;;;4912836;29;20032;-76
2022/02/02 23:34:25;;;;;;;12.98;2.35;;;;;;;;;;4906284;29;20180;-77
2022/02/02 23:36:52;;;;;;;11.35;2.53;;;;;;;;;;4923792;29;20056;-76
2022/02/02 23:39:18;;;;;;;14.48;2.50;;;;;;;;;;4923605;29;20024;-76
2022/02/02 23:44:28;;;;;;;20.08;3.60;;;;;;;;;;4921478;29;20499;-76
2022/02/02 23:46:55;;;;;;;15.60;2.58;;;;;;;;;;4932701;29;20028;-76
2022/02/02 23:49:24;;;;;;;10.93;2.15;;;;;;;;;;4923128;29;20028;-76
2022/02/02 23:51:52;;;;;;;14.90;2.05;;;;;;;;;;4906414;29;20024;-76
2022/02/02 23:54:17;;;;;;;11.23;2.90;;;;;;;;;;4925916;29;20034;-76
2022/02/02 23:57:05;;;;;;;10.95;1.98;;;;;;;;;;4916214;29;20037;-76
2022/02/02 23:59:50;;;;;;;11.95;2.22;;;;;;;;;;4917517;29;20043;-76
